createdAt,value
2018-06-28T00:00:22.216Z,79.24
2018-06-28T00:01:22.398Z,79.62
2018-06-28T00:02:22.621Z,78.86
2018-06-28T00:03:22.774Z,78.76
2018-06-28T00:04:22.973Z,78.66
2018-06-28T00:05:23.124Z,79.24
2018-06-28T00:06:23.290Z,79.52
2018-06-28T00:07:23.468Z,79.33
2018-06-28T00:08:23.651Z,79.62
2018-06-28T00:09:23.831Z,79.29
2018-06-28T00:10:24.014Z,80.06
2018-06-28T00:11:24.194Z,79.72
2018-06-28T00:12:24.379Z,79.58
2018-06-28T00:13:24.554Z,79.43
2018-06-28T00:14:24.741Z,78.81
2018-06-28T00:15:24.912Z,79.49
2018-06-28T00:16:25.094Z,79.24
2018-06-28T00:17:25.278Z,79.10
2018-06-28T00:18:25.453Z,79.20
2018-06-28T00:19:25.878Z,79.52
2018-06-28T00:20:25.819Z,79.20
2018-06-28T00:21:25.997Z,79.96
2018-06-28T00:22:26.176Z,80.06
2018-06-28T00:23:26.366Z,79.58
2018-06-28T00:24:26.542Z,80.06
2018-06-28T00:25:26.725Z,79.96
2018-06-28T00:26:26.906Z,80.16
2018-06-28T00:27:27.080Z,80.82
2018-06-28T00:28:27.265Z,81.02
2018-06-28T00:29:27.450Z,81.36
2018-06-28T00:30:27.629Z,81.16
2018-06-28T00:31:27.803Z,81.16
2018-06-28T00:32:27.981Z,81.93
2018-06-28T00:33:28.168Z,82.03
2018-06-28T00:34:28.352Z,81.65
2018-06-28T00:35:28.529Z,81.65
2018-06-28T00:36:28.722Z,81.55
2018-06-28T00:37:28.893Z,81.74
2018-06-28T00:38:29.075Z,81.65
2018-06-28T00:39:29.261Z,81.36
2018-06-28T00:40:29.444Z,81.16
2018-06-28T00:41:29.618Z,81.36
2018-06-28T00:42:29.798Z,81.36
2018-06-28T00:43:29.983Z,81.55
2018-06-28T00:44:30.159Z,82.03
2018-06-28T00:45:30.346Z,80.98
2018-06-28T00:46:30.519Z,81.55
2018-06-28T00:47:30.702Z,81.93
2018-06-28T00:48:30.880Z,82.22
2018-06-28T00:49:31.063Z,82.41
2018-06-28T00:50:31.233Z,82.46
2018-06-28T00:51:31.416Z,82.98
2018-06-28T00:52:31.596Z,82.79
2018-06-28T00:53:31.776Z,83.04
2018-06-28T00:54:31.958Z,83.13
2018-06-28T00:55:32.136Z,83.13
2018-06-28T00:56:32.315Z,83.70
2018-06-28T00:57:32.494Z,83.61
2018-06-28T00:58:32.671Z,83.61
2018-06-28T00:59:32.854Z,83.61
2018-06-28T01:00:33.037Z,82.84
2018-06-28T01:01:33.231Z,82.65
2018-06-28T01:02:33.395Z,83.04
2018-06-28T01:03:33.819Z,83.51
2018-06-28T01:04:33.756Z,83.80
2018-06-28T01:05:33.925Z,83.13
2018-06-28T01:06:34.110Z,82.84
2018-06-28T01:07:34.289Z,83.51
2018-06-28T01:08:34.469Z,83.61
2018-06-28T01:09:34.646Z,83.70
2018-06-28T01:10:34.826Z,83.04
2018-06-28T01:11:35.009Z,82.84
2018-06-28T01:12:35.184Z,83.13
2018-06-28T01:14:35.543Z,83.33
2018-06-28T01:15:35.719Z,84.09
2018-06-28T01:16:35.901Z,84.19
2018-06-28T01:17:36.077Z,83.99
2018-06-28T01:18:36.301Z,83.90
2018-06-28T01:19:36.438Z,83.99
2018-06-28T01:20:36.616Z,83.61
2018-06-28T01:21:36.796Z,84.19
2018-06-28T01:22:36.974Z,83.70
2018-06-28T01:23:37.151Z,83.61
2018-06-28T01:24:37.339Z,83.70
2018-06-28T01:25:37.514Z,83.70
2018-06-28T01:26:37.693Z,83.04
2018-06-28T01:27:37.865Z,83.80
2018-06-28T01:28:38.029Z,83.51
2018-06-28T01:29:38.210Z,83.61
2018-06-28T01:30:38.394Z,83.70
2018-06-28T01:31:38.568Z,83.61
2018-06-28T01:32:38.751Z,83.80
2018-06-28T01:33:38.930Z,83.90
2018-06-28T01:34:39.111Z,83.99
2018-06-28T01:35:39.287Z,84.47
2018-06-28T01:36:39.470Z,84.47
2018-06-28T01:37:39.647Z,84.28
2018-06-28T01:38:39.823Z,84.19
2018-06-28T01:39:40.006Z,84.38
2018-06-28T01:40:40.182Z,84.28
2018-06-28T01:41:40.359Z,84.56
2018-06-28T01:42:40.542Z,84.38
2018-06-28T01:43:40.719Z,84.47
2018-06-28T01:44:40.900Z,84.47
2018-06-28T01:45:41.074Z,84.19
2018-06-28T01:46:41.302Z,84.19
2018-06-28T01:47:41.430Z,84.19
2018-06-28T01:48:41.604Z,84.28
2018-06-28T01:49:41.804Z,85.00
2018-06-28T01:50:41.997Z,84.81
2018-06-28T01:51:42.143Z,84.91
2018-06-28T01:52:42.318Z,84.62
2018-06-28T01:53:42.500Z,84.81
2018-06-28T01:54:42.674Z,84.62
2018-06-28T01:55:42.854Z,85.00
2018-06-28T01:56:43.038Z,85.86
2018-06-28T01:57:43.536Z,86.30
2018-06-28T01:58:43.396Z,86.15
2018-06-28T01:59:43.574Z,86.15
2018-06-28T02:00:43.753Z,85.96
2018-06-28T02:01:43.932Z,85.58
2018-06-28T02:02:44.119Z,85.48
2018-06-28T02:03:44.293Z,85.58
2018-06-28T02:04:44.475Z,85.48
2018-06-28T02:05:44.644Z,85.19
2018-06-28T02:06:44.821Z,84.62
2018-06-28T02:07:45.010Z,84.91
2018-06-28T02:08:45.180Z,84.81
2018-06-28T02:09:45.361Z,84.56
2018-06-28T02:10:45.581Z,85.00
2018-06-28T02:11:45.711Z,84.62
2018-06-28T02:12:45.895Z,84.76
2018-06-28T02:13:46.071Z,85.05
2018-06-28T02:14:46.257Z,84.76
2018-06-28T02:15:46.433Z,84.05
2018-06-28T02:16:46.618Z,83.90
2018-06-28T02:17:46.793Z,84.28
2018-06-28T02:18:46.974Z,84.28
2018-06-28T02:19:47.149Z,84.28
2018-06-28T02:20:47.325Z,83.99
2018-06-28T02:21:47.505Z,84.09
2018-06-28T02:22:47.693Z,84.09
2018-06-28T02:23:47.892Z,83.70
2018-06-28T02:24:48.052Z,83.90
2018-06-28T02:25:48.242Z,83.90
2018-06-28T02:26:48.401Z,82.94
2018-06-28T02:27:48.584Z,83.04
2018-06-28T02:28:48.756Z,83.13
2018-06-28T02:29:48.938Z,83.70
2018-06-28T02:30:49.125Z,83.13
2018-06-28T02:31:49.294Z,83.61
2018-06-28T02:32:49.470Z,83.61
2018-06-28T02:33:49.650Z,83.80
2018-06-28T02:34:50.078Z,83.80
2018-06-28T02:35:50.014Z,83.67
2018-06-28T02:36:50.179Z,84.43
2018-06-28T02:37:50.362Z,84.33
2018-06-28T02:38:50.541Z,84.23
2018-06-28T02:39:50.722Z,84.52
2018-06-28T02:40:50.895Z,84.23
2018-06-28T02:41:51.081Z,84.62
2018-06-28T02:42:51.261Z,84.91
2018-06-28T02:43:51.434Z,85.00
2018-06-28T02:44:51.699Z,85.05
2018-06-28T02:45:51.801Z,84.62
2018-06-28T02:46:51.977Z,85.05
2018-06-28T02:47:52.159Z,84.47
2018-06-28T02:48:52.355Z,84.47
2018-06-28T02:49:52.522Z,84.66
2018-06-28T02:50:52.701Z,83.99
2018-06-28T02:51:52.890Z,84.28
2018-06-28T02:52:53.061Z,84.47
2018-06-28T02:53:53.238Z,84.47
2018-06-28T02:55:53.591Z,84.52
2018-06-28T02:56:53.770Z,84.43
2018-06-28T02:57:53.945Z,84.33
2018-06-28T02:58:54.127Z,84.33
2018-06-28T02:59:54.304Z,84.91
2018-06-28T03:00:54.480Z,84.72
2018-06-28T03:01:54.666Z,84.52
2018-06-28T03:02:54.840Z,85.19
2018-06-28T03:03:55.009Z,85.19
2018-06-28T03:05:55.371Z,85.77
2018-06-28T03:06:55.549Z,85.86
2018-06-28T03:07:55.732Z,86.20
2018-06-28T03:08:55.902Z,86.10
2018-06-28T03:09:56.086Z,86.49
2018-06-28T03:10:56.267Z,86.10
2018-06-28T03:11:56.436Z,85.91
2018-06-28T03:12:56.616Z,86.30
2018-06-28T03:13:56.794Z,86.15
2018-06-28T03:14:56.974Z,86.24
2018-06-28T03:15:57.153Z,86.15
2018-06-28T03:16:57.330Z,86.53
2018-06-28T03:17:57.510Z,86.15
2018-06-28T03:18:57.686Z,85.96
2018-06-28T03:19:57.867Z,86.15
2018-06-28T03:20:58.061Z,85.86
2018-06-28T03:21:58.245Z,85.91
2018-06-28T03:22:58.424Z,86.68
2018-06-28T03:23:58.599Z,85.96
2018-06-28T03:24:58.792Z,86.34
2018-06-28T03:25:58.953Z,86.24
2018-06-28T03:26:59.132Z,86.10
2018-06-28T03:27:59.318Z,86.01
2018-06-28T03:28:59.494Z,86.20
2018-06-28T03:29:59.665Z,86.58
2018-06-28T03:31:00.001Z,86.30
2018-06-28T03:32:00.033Z,86.30
2018-06-28T03:33:00.207Z,85.96
2018-06-28T03:34:00.383Z,85.96
2018-06-28T03:35:00.546Z,86.24
2018-06-28T03:36:00.739Z,86.01
2018-06-28T03:37:00.909Z,86.10
2018-06-28T03:38:01.176Z,86.77
2018-06-28T03:39:01.549Z,86.30
2018-06-28T03:40:01.445Z,86.34
2018-06-28T03:41:01.623Z,86.87
2018-06-28T03:42:01.802Z,86.39
2018-06-28T03:43:01.990Z,86.58
2018-06-28T03:44:02.176Z,86.34
2018-06-28T03:45:02.348Z,86.05
2018-06-28T03:46:02.528Z,86.15
2018-06-28T03:47:02.707Z,86.24
2018-06-28T03:48:02.887Z,85.77
2018-06-28T03:49:03.069Z,85.48
2018-06-28T03:50:03.244Z,85.00
2018-06-28T03:51:03.431Z,84.91
2018-06-28T03:52:03.603Z,84.33
2018-06-28T03:53:03.782Z,84.14
2018-06-28T03:54:03.960Z,84.81
2018-06-28T03:55:04.136Z,85.00
2018-06-28T03:56:04.315Z,84.62
2018-06-28T03:57:04.494Z,84.91
2018-06-28T03:58:04.665Z,84.81
2018-06-28T03:59:04.845Z,84.91
2018-06-28T04:00:05.021Z,84.81
2018-06-28T04:01:05.204Z,84.72
2018-06-28T04:02:05.379Z,84.91
2018-06-28T04:03:05.558Z,84.91
2018-06-28T04:04:05.736Z,85.14
2018-06-28T04:05:05.915Z,84.47
2018-06-28T04:06:06.095Z,84.28
2018-06-28T04:07:06.277Z,84.28
2018-06-28T04:08:06.459Z,84.28
2018-06-28T04:09:06.636Z,84.28
2018-06-28T04:10:06.813Z,83.90
2018-06-28T04:11:06.992Z,84.47
2018-06-28T04:12:07.180Z,84.47
2018-06-28T04:13:07.359Z,83.99
2018-06-28T04:14:07.537Z,84.56
2018-06-28T04:15:07.718Z,84.38
2018-06-28T04:16:07.895Z,83.70
2018-06-28T04:17:08.087Z,82.79
2018-06-28T04:18:08.254Z,80.92
2018-06-28T04:19:08.445Z,79.87
2018-06-28T04:20:08.620Z,78.86
2018-06-28T04:21:08.796Z,78.28
2018-06-28T04:22:08.980Z,77.55
2018-06-28T04:23:09.152Z,76.64
2018-06-28T04:24:09.333Z,75.39
2018-06-28T04:25:09.513Z,74.15
2018-06-28T04:27:09.869Z,74.91
2018-06-28T04:28:10.053Z,74.52
2018-06-28T04:29:10.228Z,75.64
2018-06-28T04:30:10.402Z,76.02
2018-06-28T04:31:10.592Z,76.31
2018-06-28T04:32:10.768Z,76.18
2018-06-28T04:33:11.328Z,76.60
2018-06-28T04:34:11.152Z,76.50
2018-06-28T04:35:11.342Z,76.56
2018-06-28T04:36:11.502Z,76.56
2018-06-28T04:37:11.678Z,76.75
2018-06-28T04:38:11.862Z,77.17
2018-06-28T04:39:12.045Z,75.87
2018-06-28T04:40:12.234Z,73.70
2018-06-28T04:41:12.417Z,71.66
2018-06-28T04:42:12.597Z,69.74
2018-06-28T04:43:12.776Z,69.56
2018-06-28T04:44:12.965Z,68.63
2018-06-28T04:45:13.163Z,67.51
2018-06-28T04:46:13.350Z,67.03
2018-06-28T04:47:13.533Z,66.93
2018-06-28T04:48:13.714Z,65.81
2018-06-28T04:49:13.903Z,64.25
2018-06-28T04:50:14.086Z,62.51
2018-06-28T04:51:14.268Z,61.58
2018-06-28T04:52:14.445Z,60.75
2018-06-28T04:53:14.632Z,59.45
2018-06-28T04:54:14.809Z,58.20
2018-06-28T04:55:14.990Z,58.75
2018-06-28T04:56:15.175Z,57.27
2018-06-28T04:57:15.461Z,56.59
2018-06-28T04:58:15.554Z,57.14
2018-06-28T04:59:15.754Z,57.14
2018-06-28T05:00:15.921Z,57.43
2018-06-28T05:01:16.165Z,58.01
2018-06-28T05:02:16.299Z,58.79
2018-06-28T05:03:16.488Z,62.71
2018-06-28T05:04:16.678Z,65.05
2018-06-28T05:05:16.871Z,66.71
2018-06-28T05:06:17.057Z,65.81
2018-06-28T05:07:17.531Z,63.76
2018-06-28T05:08:17.432Z,62.61
2018-06-28T05:09:17.631Z,62.32
2018-06-28T05:10:17.810Z,64.37
2018-06-28T05:11:17.993Z,64.50
2018-06-28T05:12:18.173Z,61.87
2018-06-28T05:13:18.365Z,61.32
2018-06-28T05:14:18.631Z,60.20
2018-06-28T05:15:18.738Z,59.75
2018-06-28T05:16:18.922Z,58.40
2018-06-28T05:17:19.115Z,57.49
2018-06-28T05:18:19.550Z,56.62
2018-06-28T05:19:19.493Z,56.26
2018-06-28T05:20:19.688Z,54.84
2018-06-28T05:21:19.887Z,53.52
2018-06-28T05:22:20.069Z,52.67
2018-06-28T05:23:20.330Z,51.81
2018-06-28T05:24:20.448Z,51.37
2018-06-28T05:25:20.643Z,50.38
2018-06-28T05:26:20.832Z,50.76
2018-06-28T05:27:21.025Z,50.21
2018-06-28T05:28:21.228Z,50.12
2018-06-28T05:29:21.403Z,50.21
2018-06-28T05:30:21.597Z,49.75
2018-06-28T05:31:21.778Z,49.34
2018-06-28T05:32:22.233Z,49.82
2018-06-28T05:33:22.157Z,50.07
2018-06-28T05:34:22.342Z,50.57
2018-06-28T05:35:22.536Z,50.86
2018-06-28T05:36:22.733Z,51.03
2018-06-28T05:37:22.919Z,52.33
2018-06-28T05:38:23.099Z,53.30
2018-06-28T05:39:23.584Z,54.33
2018-06-28T05:40:23.488Z,54.31
2018-06-28T05:41:23.673Z,55.85
2018-06-28T05:42:23.870Z,55.30
2018-06-28T05:43:24.064Z,55.20
2018-06-28T05:44:24.254Z,54.33
2018-06-28T05:45:24.450Z,58.72
2018-06-28T05:46:24.866Z,59.69
2018-06-28T05:47:24.819Z,60.30
2018-06-28T05:48:25.008Z,60.81
2018-06-28T05:49:25.205Z,60.61
2018-06-28T05:50:25.389Z,60.91
2018-06-28T05:51:25.591Z,62.74
2018-06-28T05:52:25.770Z,62.93
2018-06-28T05:53:26.201Z,61.07
2018-06-28T05:54:26.148Z,60.77
2018-06-28T05:55:26.745Z,60.33
2018-06-28T05:56:26.538Z,60.68
2018-06-28T05:57:26.739Z,59.69
2018-06-28T05:58:26.924Z,59.91
2018-06-28T05:59:27.111Z,59.30
2018-06-28T06:00:28.171Z,57.78
2018-06-28T06:01:27.497Z,56.79
2018-06-28T06:02:27.677Z,59.84
2018-06-28T06:03:27.855Z,58.88
2018-06-28T06:04:28.054Z,59.10
2018-06-28T06:05:28.236Z,61.10
2018-06-28T06:06:28.430Z,60.94
2018-06-28T06:07:28.612Z,63.92
2018-06-28T06:08:28.802Z,65.08
2018-06-28T06:09:29.011Z,63.99
2018-06-28T06:11:29.371Z,62.12
2018-06-28T06:12:29.553Z,60.65
2018-06-28T06:13:29.746Z,62.45
2018-06-28T06:14:30.180Z,61.16
2018-06-28T06:15:30.124Z,59.58
2018-06-28T06:16:30.334Z,58.91
2018-06-28T06:17:30.507Z,57.32
2018-06-28T06:18:30.703Z,55.65
2018-06-28T06:19:30.932Z,54.77
2018-06-28T06:20:31.072Z,54.39
2018-06-28T06:21:31.275Z,55.30
2018-06-28T06:22:31.449Z,57.10
2018-06-28T06:23:31.642Z,59.94
2018-06-28T06:24:31.835Z,58.65
2018-06-28T06:25:32.042Z,56.84
2018-06-28T06:26:32.231Z,55.71
2018-06-28T06:27:32.429Z,54.22
2018-06-28T06:28:32.612Z,53.09
2018-06-28T06:29:32.847Z,52.63
2018-06-28T06:30:32.998Z,52.14
2018-06-28T06:31:33.189Z,51.86
2018-06-28T06:32:33.381Z,51.23
2018-06-28T06:33:33.577Z,50.26
2018-06-28T06:34:33.830Z,50.84
2018-06-28T06:35:34.202Z,50.29
2018-06-28T06:36:34.153Z,49.15
2018-06-28T06:37:34.325Z,49.22
2018-06-28T06:38:34.510Z,49.80
2018-06-28T06:39:34.698Z,49.90
2018-06-28T06:40:34.892Z,49.90
2018-06-28T06:41:35.082Z,49.80
2018-06-28T06:43:35.454Z,49.97
2018-06-28T06:44:35.649Z,50.35
2018-06-28T06:45:35.880Z,50.48
2018-06-28T06:46:36.021Z,50.19
2018-06-28T06:47:36.216Z,49.90
2018-06-28T06:48:36.401Z,49.75
2018-06-28T06:49:36.589Z,51.04
2018-06-28T06:50:36.783Z,49.92
2018-06-28T06:51:36.972Z,49.24
2018-06-28T06:52:37.170Z,48.30
2018-06-28T06:53:37.351Z,49.15
2018-06-28T06:54:37.559Z,49.29
2018-06-28T06:55:37.725Z,51.32
2018-06-28T06:56:37.918Z,51.23
2018-06-28T06:57:38.131Z,49.90
2018-06-28T06:58:38.294Z,50.19
2018-06-28T06:59:38.482Z,51.98
2018-06-28T07:00:38.674Z,54.13
2018-06-28T07:01:38.869Z,55.87
2018-06-28T07:02:39.059Z,53.99
2018-06-28T07:04:39.424Z,56.22
2018-06-28T07:05:39.615Z,56.15
2018-06-28T07:06:39.815Z,54.66
2018-06-28T07:07:39.989Z,53.69
2018-06-28T07:08:40.185Z,54.22
2018-06-28T07:09:40.381Z,55.19
2018-06-28T07:10:40.570Z,54.57
2018-06-28T07:11:40.757Z,53.86
2018-06-28T07:12:40.948Z,54.35
2018-06-28T07:13:41.140Z,54.63
2018-06-28T07:14:41.328Z,53.14
2018-06-28T07:15:41.535Z,53.02
2018-06-28T07:16:41.703Z,54.47
2018-06-28T07:17:41.902Z,52.17
2018-06-28T07:18:42.089Z,52.27
2018-06-28T07:19:42.269Z,52.34
2018-06-28T07:20:42.463Z,53.33
2018-06-28T07:21:42.653Z,52.03
2018-06-28T07:22:42.847Z,50.21
2018-06-28T07:23:43.034Z,49.24
2018-06-28T07:24:43.231Z,49.61
2018-06-28T07:25:43.412Z,50.60
2018-06-28T07:26:43.607Z,49.00
2018-06-28T07:27:43.816Z,48.05
2018-06-28T07:28:44.035Z,48.27
2018-06-28T07:29:44.211Z,46.84
2018-06-28T07:30:44.396Z,46.37
2018-06-28T07:31:44.586Z,45.50
2018-06-28T07:32:44.778Z,45.31
2018-06-28T07:33:44.986Z,46.58
2018-06-28T07:34:45.154Z,48.80
2018-06-28T07:35:45.346Z,48.64
2018-06-28T07:36:45.539Z,48.25
2018-06-28T07:37:45.735Z,46.94
2018-06-28T07:38:45.909Z,46.28
2018-06-28T07:39:46.100Z,45.50
2018-06-28T07:40:46.316Z,45.52
2018-06-28T07:41:46.499Z,45.14
2018-06-28T07:42:46.689Z,48.18
2018-06-28T07:43:46.878Z,48.71
2018-06-28T07:44:47.072Z,48.80
2018-06-28T07:45:47.270Z,50.34
2018-06-28T07:46:47.468Z,50.35
2018-06-28T07:47:47.640Z,51.81
2018-06-28T07:48:47.836Z,53.02
2018-06-28T07:49:48.026Z,53.65
2018-06-28T07:50:48.239Z,52.03
2018-06-28T07:51:48.423Z,53.07
2018-06-28T07:52:48.632Z,52.06
2018-06-28T07:53:48.816Z,50.57
2018-06-28T07:54:48.986Z,51.28
2018-06-28T07:55:49.176Z,51.31
2018-06-28T07:56:49.357Z,49.71
2018-06-28T07:57:49.582Z,48.57
2018-06-28T07:58:49.788Z,47.61
2018-06-28T07:59:49.983Z,47.05
2018-06-28T08:00:50.172Z,46.59
2018-06-28T08:01:50.354Z,46.30
2018-06-28T08:02:50.562Z,46.59
2018-06-28T08:03:50.740Z,45.06
2018-06-28T08:04:50.978Z,45.35
2018-06-28T08:05:51.130Z,46.84
2018-06-28T08:06:51.308Z,47.32
2018-06-28T08:07:51.505Z,47.32
2018-06-28T08:08:51.699Z,46.86
2018-06-28T08:09:51.953Z,46.77
2018-06-28T08:10:52.082Z,46.67
2018-06-28T08:11:52.275Z,46.98
2018-06-28T08:12:52.459Z,46.98
2018-06-28T08:13:52.658Z,45.64
2018-06-28T08:14:52.842Z,45.14
2018-06-28T08:15:53.028Z,47.03
2018-06-28T08:16:53.233Z,49.22
2018-06-28T08:17:53.659Z,49.32
2018-06-28T08:18:53.597Z,49.58
2018-06-28T08:19:53.794Z,50.14
2018-06-28T08:20:53.982Z,50.46
2018-06-28T08:21:54.174Z,51.14
2018-06-28T08:22:54.361Z,50.26
2018-06-28T08:23:54.552Z,49.49
2018-06-28T08:24:54.750Z,49.80
2018-06-28T08:25:54.942Z,49.61
2018-06-28T08:26:55.168Z,49.22
2018-06-28T08:27:55.315Z,50.34
2018-06-28T08:28:55.508Z,49.99
2018-06-28T08:29:55.699Z,49.61
2018-06-28T08:30:55.892Z,49.22
2018-06-28T08:31:56.075Z,48.75
2018-06-28T08:32:56.269Z,49.05
2018-06-28T08:33:56.459Z,48.27
2018-06-28T08:34:56.629Z,48.47
2018-06-28T08:35:56.859Z,48.37
2018-06-28T08:36:57.002Z,48.85
2018-06-28T08:37:57.189Z,49.41
2018-06-28T08:38:57.392Z,50.07
2018-06-28T08:39:57.563Z,50.65
2018-06-28T08:40:57.753Z,50.53
2018-06-28T08:41:57.949Z,52.42
2018-06-28T08:42:58.144Z,52.51
2018-06-28T08:43:58.337Z,53.51
2018-06-28T08:44:58.524Z,53.02
2018-06-28T08:45:58.715Z,51.86
2018-06-28T08:46:58.900Z,52.34
2018-06-28T08:47:59.089Z,52.71
2018-06-28T08:48:59.281Z,51.86
2018-06-28T08:49:59.478Z,52.51
2018-06-28T08:50:59.651Z,52.15
2018-06-28T08:51:59.847Z,52.34
2018-06-28T08:53:00.047Z,52.83
2018-06-28T08:54:00.219Z,52.83
2018-06-28T08:55:00.414Z,53.87
2018-06-28T08:56:00.590Z,53.00
2018-06-28T08:57:00.780Z,53.87
2018-06-28T08:58:01.096Z,53.02
2018-06-28T08:59:01.150Z,53.51
2018-06-28T09:00:01.576Z,52.56
2018-06-28T09:01:01.529Z,51.14
2018-06-28T09:02:01.715Z,50.38
2018-06-28T09:03:01.903Z,50.99
2018-06-28T09:04:02.109Z,52.28
2018-06-28T09:05:02.271Z,52.73
2018-06-28T09:06:02.462Z,52.15
2018-06-28T09:07:02.649Z,52.08
2018-06-28T09:08:02.837Z,53.58
2018-06-28T09:09:03.034Z,52.47
2018-06-28T09:10:03.228Z,51.81
2018-06-28T09:11:03.397Z,51.43
2018-06-28T09:12:03.583Z,50.31
2018-06-28T09:13:03.773Z,48.97
2018-06-28T09:14:04.198Z,48.32
2018-06-28T09:15:04.149Z,48.20
2018-06-28T09:16:04.340Z,48.13
2018-06-28T09:17:04.525Z,47.81
2018-06-28T09:18:04.727Z,48.13
2018-06-28T09:19:04.904Z,47.17
2018-06-28T09:20:05.100Z,47.37
2018-06-28T09:21:05.281Z,47.15
2018-06-28T09:22:05.519Z,48.32
2018-06-28T09:23:05.714Z,47.64
2018-06-28T09:24:05.848Z,47.10
2018-06-28T09:25:06.029Z,46.98
2018-06-28T09:26:06.220Z,47.05
2018-06-28T09:27:06.406Z,47.54
2018-06-28T09:28:06.623Z,46.98
2018-06-28T09:29:06.792Z,46.42
2018-06-28T09:30:06.992Z,46.51
2018-06-28T09:31:07.452Z,46.23
2018-06-28T09:32:07.350Z,46.78
2018-06-28T09:33:07.532Z,45.74
2018-06-28T09:34:07.720Z,45.28
2018-06-28T09:35:07.923Z,45.76
2018-06-28T09:36:08.127Z,45.64
2018-06-28T09:37:08.320Z,46.32
2018-06-28T09:38:08.513Z,46.96
2018-06-28T09:39:08.699Z,46.88
2018-06-28T09:40:08.893Z,47.10
2018-06-28T09:41:09.088Z,46.42
2018-06-28T09:42:09.282Z,45.37
2018-06-28T09:43:09.445Z,44.32
2018-06-28T09:44:09.717Z,44.62
2018-06-28T09:45:09.904Z,45.18
2018-06-28T09:46:10.095Z,44.81
2018-06-28T09:47:10.281Z,45.08
2018-06-28T09:48:10.474Z,45.57
2018-06-28T09:49:10.668Z,46.11
2018-06-28T09:50:10.832Z,48.95
2018-06-28T09:51:11.026Z,48.20
2018-06-28T09:52:11.207Z,47.05
2018-06-28T09:53:11.386Z,46.78
2018-06-28T09:54:11.588Z,46.50
2018-06-28T09:55:11.772Z,45.62
2018-06-28T09:56:11.963Z,45.35
2018-06-28T09:57:12.134Z,44.65
2018-06-28T09:58:12.312Z,44.65
2018-06-28T09:59:12.521Z,44.57
2018-06-28T10:00:12.717Z,44.84
2018-06-28T10:01:12.893Z,44.45
2018-06-28T10:02:13.092Z,44.43
2018-06-28T10:03:13.272Z,44.43
2018-06-28T10:04:13.449Z,44.26
2018-06-28T10:05:13.632Z,43.87
2018-06-28T10:06:13.821Z,44.06
2018-06-28T10:07:14.006Z,43.79
2018-06-28T10:08:14.196Z,43.87
2018-06-28T10:09:14.397Z,43.95
2018-06-28T10:10:14.637Z,44.62
2018-06-28T10:11:14.753Z,44.72
2018-06-28T10:12:14.937Z,44.14
2018-06-28T10:13:15.185Z,44.33
2018-06-28T10:14:15.325Z,44.84
2018-06-28T10:15:15.511Z,43.96
2018-06-28T10:16:15.699Z,43.40
2018-06-28T10:17:15.890Z,42.35
2018-06-28T10:18:16.093Z,42.53
2018-06-28T10:19:16.268Z,42.91
2018-06-28T10:20:16.467Z,43.19
2018-06-28T10:21:16.662Z,42.82
2018-06-28T10:22:16.829Z,42.33
2018-06-28T10:23:17.017Z,42.16
2018-06-28T10:24:17.198Z,43.26
2018-06-28T10:25:17.387Z,42.85
2018-06-28T10:26:17.572Z,44.44
2018-06-28T10:27:17.761Z,45.97
2018-06-28T10:28:17.946Z,46.14
2018-06-28T10:29:18.138Z,45.41
2018-06-28T10:30:18.327Z,45.43
2018-06-28T10:31:18.522Z,45.28
2018-06-28T10:32:18.709Z,44.04
2018-06-28T10:33:18.891Z,43.21
2018-06-28T10:34:19.087Z,42.25
2018-06-28T10:35:19.260Z,42.25
2018-06-28T10:36:19.454Z,42.70
2018-06-28T10:37:19.643Z,42.99
2018-06-28T10:38:19.840Z,42.87
2018-06-28T10:39:20.032Z,42.31
2018-06-28T10:40:20.209Z,42.02
2018-06-28T10:41:20.394Z,41.94
2018-06-28T10:42:20.581Z,41.77
2018-06-28T10:43:20.772Z,41.86
2018-06-28T10:44:20.957Z,41.57
2018-06-28T10:45:21.146Z,41.30
2018-06-28T10:46:21.325Z,40.60
2018-06-28T10:47:21.516Z,40.80
2018-06-28T10:48:21.758Z,41.86
2018-06-28T10:49:21.903Z,40.99
2018-06-28T10:50:22.128Z,41.48
2018-06-28T10:51:22.277Z,41.86
2018-06-28T10:52:22.459Z,42.02
2018-06-28T10:53:22.651Z,42.82
2018-06-28T10:54:22.835Z,42.24
2018-06-28T10:55:23.023Z,42.24
2018-06-28T10:56:23.241Z,41.55
2018-06-28T10:57:23.399Z,41.36
2018-06-28T10:58:23.581Z,41.16
2018-06-28T10:59:23.770Z,41.67
2018-06-28T11:00:23.953Z,41.57
2018-06-28T11:01:24.134Z,41.69
2018-06-28T11:02:24.325Z,41.60
2018-06-28T11:03:24.513Z,41.89
2018-06-28T11:04:24.704Z,41.69
2018-06-28T11:05:24.894Z,42.06
2018-06-28T11:06:25.079Z,41.79
2018-06-28T11:07:25.311Z,40.72
2018-06-28T11:08:25.514Z,41.19
2018-06-28T11:09:25.657Z,41.28
2018-06-28T11:10:25.837Z,41.38
2018-06-28T11:11:26.027Z,41.57
2018-06-28T11:12:26.215Z,42.14
2018-06-28T11:13:26.404Z,42.24
2018-06-28T11:14:26.591Z,42.16
2018-06-28T11:15:26.783Z,42.16
2018-06-28T11:16:27.217Z,42.25
2018-06-28T11:17:27.157Z,42.14
2018-06-28T11:18:27.464Z,42.16
2018-06-28T11:19:27.528Z,42.14
2018-06-28T11:20:27.729Z,42.21
2018-06-28T11:21:27.897Z,42.41
2018-06-28T11:22:28.081Z,42.60
2018-06-28T11:23:28.275Z,42.99
2018-06-28T11:24:28.459Z,43.16
2018-06-28T11:25:28.657Z,43.82
2018-06-28T11:26:28.826Z,43.82
2018-06-28T11:27:29.004Z,44.41
2018-06-28T11:28:29.194Z,44.02
2018-06-28T11:29:29.387Z,43.92
2018-06-28T11:30:29.568Z,43.63
2018-06-28T11:31:29.755Z,44.14
2018-06-28T11:32:29.940Z,43.26
2018-06-28T11:33:30.130Z,43.55
2018-06-28T11:34:30.318Z,42.80
2018-06-28T11:35:30.501Z,42.50
2018-06-28T11:36:30.687Z,42.21
2018-06-28T11:37:30.877Z,42.31
2018-06-28T11:38:31.062Z,42.31
2018-06-28T11:39:31.253Z,43.36
2018-06-28T11:41:31.626Z,42.80
2018-06-28T11:42:31.808Z,42.14
2018-06-28T11:43:31.997Z,41.86
2018-06-28T11:44:32.203Z,41.67
2018-06-28T11:45:32.370Z,42.50
2018-06-28T11:46:32.565Z,43.82
2018-06-28T11:47:32.745Z,43.38
2018-06-28T11:48:32.931Z,42.41
2018-06-28T11:49:33.122Z,41.46
2018-06-28T11:50:33.304Z,40.41
2018-06-28T11:51:33.496Z,40.41
2018-06-28T11:52:33.679Z,40.80
2018-06-28T11:53:33.865Z,40.80
2018-06-28T11:54:34.058Z,40.78
2018-06-28T11:55:34.246Z,41.28
2018-06-28T11:56:34.428Z,41.19
2018-06-28T11:57:34.611Z,40.68
2018-06-28T11:58:34.819Z,40.48
2018-06-28T11:59:35.000Z,40.88
2018-06-28T12:00:35.180Z,40.50
2018-06-28T12:01:35.387Z,40.21
2018-06-28T12:02:35.561Z,40.19
2018-06-28T12:03:35.743Z,40.56
2018-06-28T12:04:35.932Z,40.78
2018-06-28T12:05:36.125Z,40.88
2018-06-28T12:06:36.301Z,40.48
2018-06-28T12:07:36.489Z,40.58
2018-06-28T12:08:36.677Z,41.13
2018-06-28T12:09:36.865Z,41.42
2018-06-28T12:10:37.049Z,41.34
2018-06-28T12:11:37.237Z,40.93
2018-06-28T12:12:37.423Z,41.22
2018-06-28T12:13:37.619Z,41.03
2018-06-28T12:14:37.794Z,41.13
2018-06-28T12:15:38.279Z,41.05
2018-06-28T12:16:38.175Z,40.83
2018-06-28T12:17:38.357Z,40.73
2018-06-28T12:18:38.597Z,41.22
2018-06-28T12:19:38.755Z,41.22
2018-06-28T12:20:38.944Z,41.24
2018-06-28T12:21:39.129Z,40.66
2018-06-28T12:22:39.315Z,40.19
2018-06-28T12:23:39.497Z,40.29
2018-06-28T12:24:39.685Z,39.62
2018-06-28T12:25:39.905Z,39.43
2018-06-28T12:26:40.057Z,39.90
2018-06-28T12:27:40.262Z,39.98
2018-06-28T12:28:40.445Z,40.37
2018-06-28T12:29:40.629Z,40.17
2018-06-28T12:30:40.821Z,40.09
2018-06-28T12:31:41.024Z,39.98
2018-06-28T12:32:41.227Z,40.08
2018-06-28T12:33:41.394Z,40.44
2018-06-28T12:34:41.571Z,40.54
2018-06-28T12:35:41.758Z,40.34
2018-06-28T12:36:41.948Z,40.06
2018-06-28T12:37:42.136Z,40.25
2018-06-28T12:38:42.337Z,40.73
2018-06-28T12:39:42.512Z,40.83
2018-06-28T12:40:42.703Z,40.73
2018-06-28T12:41:42.895Z,40.37
2018-06-28T12:42:43.073Z,40.17
2018-06-28T12:43:43.266Z,39.03
2018-06-28T12:44:43.457Z,38.26
2018-06-28T12:45:43.642Z,37.77
2018-06-28T12:47:44.017Z,39.14
2018-06-28T12:48:44.258Z,38.73
2018-06-28T12:49:44.513Z,38.73
2018-06-28T12:50:44.730Z,38.95
2018-06-28T12:51:45.817Z,38.85
2018-06-28T12:52:45.108Z,39.12
2018-06-28T12:53:45.276Z,38.73
2018-06-28T12:54:45.396Z,39.70
2018-06-28T12:55:45.627Z,38.75
2018-06-28T12:56:46.099Z,38.75
2018-06-28T12:57:46.768Z,39.43
2018-06-28T12:58:46.133Z,39.24
2018-06-28T12:59:46.372Z,38.95
2018-06-28T13:00:46.515Z,39.14
2018-06-28T13:01:46.704Z,39.04
2018-06-28T13:02:46.881Z,38.75
2018-06-28T13:03:47.080Z,38.46